Time;durP1;ratioP1;P1;durP2;ratioP2;P2;SDS_P1;SDS_P2;PMS_P1;PMS_P2;Temp;Humidity;BMP_temperature;BMP_pressure;BME280_temperature;BME280_humidity;BME280_pressure;Samples;Min_cycle;Max_cycle;Signal;HPM_P1;HPM_P2
2023/10/22 00:00:08;;;;;;;5.38;2.20;;;16.50;99.90;;;;;;4941271;28;20513;-78
2023/10/22 00:02:39;;;;;;;8.10;2.47;;;16.50;99.90;;;;;;4960464;28;20629;-79
2023/10/22 00:05:07;;;;;;;7.80;1.98;;;16.50;99.90;;;;;;4966467;28;20133;-78
2023/10/22 00:07:35;;;;;;;5.85;1.95;;;16.50;99.90;;;;;;4961023;28;20426;-78
2023/10/22 00:10:03;;;;;;;8.68;1.92;;;16.50;99.90;;;;;;4942428;28;20679;-78
2023/10/22 00:12:30;;;;;;;5.45;1.90;;;16.40;99.90;;;;;;4962907;28;20062;-78
2023/10/22 00:14:57;;;;;;;8.30;2.20;;;16.40;99.90;;;;;;4972072;28;20155;-78
2023/10/22 00:17:24;;;;;;;8.75;1.98;;;16.40;99.90;;;;;;4942299;28;20802;-78
2023/10/22 00:19:51;;;;;;;11.00;1.98;;;16.40;99.90;;;;;;4962042;28;20051;-77
2023/10/22 00:22:18;;;;;;;6.68;2.13;;;16.40;99.90;;;;;;4946189;28;22570;-78
2023/10/22 00:24:45;;;;;;;9.07;1.83;;;16.50;99.90;;;;;;4950942;28;20848;-78
2023/10/22 00:27:13;;;;;;;7.38;2.20;;;16.40;99.90;;;;;;4971627;28;20052;-78
2023/10/22 00:29:40;;;;;;;7.38;1.98;;;16.50;99.90;;;;;;4983084;28;20054;-78
2023/10/22 00:32:07;;;;;;;9.15;2.67;;;16.40;99.90;;;;;;4956634;28;20437;-78
2023/10/22 00:34:35;;;;;;;4.35;1.70;;;16.50;99.90;;;;;;4945042;28;20050;-78
2023/10/22 00:37:02;;;;;;;6.07;1.73;;;16.40;99.90;;;;;;4945745;28;20128;-79
2023/10/22 00:39:30;;;;;;;9.35;1.70;;;16.50;99.90;;;;;;4945475;28;20086;-78
2023/10/22 00:41:57;;;;;;;6.97;1.77;;;16.40;99.90;;;;;;4966141;28;20146;-78
2023/10/22 00:44:24;;;;;;;5.97;1.63;;;16.40;99.90;;;;;;4946530;28;20050;-78
2023/10/22 00:46:52;;;;;;;9.00;2.05;;;16.40;99.90;;;;;;4938523;28;22053;-78
2023/10/22 00:49:19;;;;;;;5.20;1.70;;;16.40;99.90;;;;;;4957654;28;20252;-78
2023/10/22 00:51:48;;;;;;;5.55;1.67;;;16.50;99.90;;;;;;4961711;28;20792;-78
2023/10/22 00:54:18;;;;;;;5.63;1.88;;;16.50;99.90;;;;;;4946677;28;20152;-78
2023/10/22 00:56:46;;;;;;;5.13;1.98;;;16.40;99.90;;;;;;4963731;28;20272;-78
2023/10/22 00:59:14;;;;;;;7.88;2.03;;;16.50;99.90;;;;;;4944875;28;21932;-78
2023/10/22 01:01:42;;;;;;;6.60;2.30;;;16.40;99.90;;;;;;4938158;28;20606;-78
2023/10/22 01:04:10;;;;;;;6.95;1.77;;;16.40;99.90;;;;;;4927669;28;20054;-78
2023/10/22 01:06:37;;;;;;;6.15;2.00;;;16.40;99.90;;;;;;4942211;28;20054;-78
2023/10/22 01:09:06;;;;;;;7.43;1.80;;;16.40;99.90;;;;;;4948684;28;20062;-78
2023/10/22 01:11:33;;;;;;;9.93;2.05;;;16.40;99.90;;;;;;4929310;28;20058;-78
2023/10/22 01:14:01;;;;;;;6.35;2.20;;;16.40;99.90;;;;;;4943766;28;20050;-78
2023/10/22 01:16:28;;;;;;;9.80;2.83;;;16.40;99.90;;;;;;4957169;28;20060;-78
2023/10/22 01:18:55;;;;;;;6.68;2.38;;;16.40;99.90;;;;;;4938001;28;20470;-78
2023/10/22 01:21:28;;;;;;;9.57;2.80;;;16.40;99.90;;;;;;4928925;28;20077;-78
2023/10/22 01:23:56;;;;;;;5.78;2.33;;;16.40;99.90;;;;;;4973124;28;20054;-78
2023/10/22 01:26:24;;;;;;;7.72;1.90;;;16.40;99.90;;;;;;4944566;28;20220;-78
2023/10/22 01:28:51;;;;;;;9.00;2.10;;;16.40;99.90;;;;;;4953127;28;20053;-78
2023/10/22 01:31:18;;;;;;;6.40;2.15;;;16.40;99.90;;;;;;4947481;28;20047;-78
2023/10/22 01:33:45;;;;;;;7.97;3.72;;;16.40;99.90;;;;;;4949781;28;20042;-78
2023/10/22 01:36:12;;;;;;;8.85;2.58;;;16.40;99.90;;;;;;4974048;28;20124;-78
2023/10/22 01:38:39;;;;;;;4.72;1.70;;;16.40;99.90;;;;;;4941699;28;20963;-78
2023/10/22 01:41:08;;;;;;;7.55;2.05;;;16.40;99.90;;;;;;4943011;28;20046;-78
2023/10/22 01:43:36;;;;;;;8.77;2.30;;;16.30;99.90;;;;;;4941209;28;20557;-78
2023/10/22 01:46:03;;;;;;;7.40;1.90;;;16.30;99.90;;;;;;4969945;28;20521;-78
2023/10/22 01:48:30;;;;;;;7.65;2.13;;;16.40;99.90;;;;;;4958238;28;20410;-78
2023/10/22 01:50:57;;;;;;;7.43;2.10;;;16.30;99.90;;;;;;4953492;28;22662;-79
2023/10/22 01:53:25;;;;;;;7.72;3.00;;;16.30;99.90;;;;;;4944062;28;20133;-78
2023/10/22 01:55:52;;;;;;;6.80;2.28;;;16.30;99.90;;;;;;4938854;28;20068;-78
2023/10/22 01:58:19;;;;;;;10.75;2.30;;;16.30;99.90;;;;;;4943350;28;20577;-78
2023/10/22 02:00:46;;;;;;;8.85;3.15;;;16.30;99.90;;;;;;4956298;28;20138;-78
2023/10/22 02:03:14;;;;;;;10.20;3.78;;;16.30;99.90;;;;;;4928989;28;20050;-79
2023/10/22 02:05:42;;;;;;;7.18;3.20;;;16.30;99.90;;;;;;4944288;28;20050;-78
2023/10/22 02:08:09;;;;;;;5.82;2.30;;;16.30;99.90;;;;;;4928932;28;20100;-79
2023/10/22 02:10:36;;;;;;;8.18;2.55;;;16.30;99.90;;;;;;4938584;28;20042;-78
2023/10/22 02:13:03;;;;;;;7.53;2.80;;;16.30;99.90;;;;;;4945853;28;20268;-78
2023/10/22 02:15:30;;;;;;;7.97;2.65;;;16.30;99.90;;;;;;4974613;28;20093;-78
2023/10/22 02:17:59;;;;;;;6.95;2.42;;;16.30;99.90;;;;;;4947823;28;20049;-79
2023/10/22 02:20:27;;;;;;;13.20;3.33;;;16.30;99.90;;;;;;4938788;28;20042;-79
2023/10/22 02:22:55;;;;;;;11.63;3.20;;;16.30;99.90;;;;;;4939349;28;20047;-79
2023/10/22 02:25:22;;;;;;;11.32;3.30;;;16.30;99.90;;;;;;4929499;28;20050;-78
2023/10/22 02:27:49;;;;;;;6.63;2.95;;;16.30;99.90;;;;;;4944754;28;20104;-79
2023/10/22 02:30:16;;;;;;;10.75;2.30;;;16.30;99.90;;;;;;4943931;28;20072;-79
2023/10/22 02:32:45;;;;;;;10.15;2.53;;;16.30;99.90;;;;;;4969535;28;20034;-78
2023/10/22 02:35:12;;;;;;;13.68;2.88;;;16.30;99.90;;;;;;4961058;28;20070;-79
2023/10/22 02:37:40;;;;;;;6.45;2.97;;;16.30;99.90;;;;;;4939218;28;20196;-78
2023/10/22 02:40:09;;;;;;;12.82;2.90;;;16.30;99.90;;;;;;4961523;28;20046;-79
2023/10/22 02:42:36;;;;;;;13.27;2.75;;;16.30;99.90;;;;;;4943980;28;20051;-78
2023/10/22 02:45:05;;;;;;;10.73;3.00;;;16.30;99.90;;;;;;4937910;28;20066;-79
2023/10/22 02:47:33;;;;;;;8.30;2.38;;;16.30;99.90;;;;;;4937463;28;20180;-79
2023/10/22 02:50:00;;;;;;;9.73;3.00;;;16.30;99.90;;;;;;4936987;28;20183;-79
2023/10/22 02:52:27;;;;;;;7.93;2.72;;;16.30;99.90;;;;;;4944143;28;20116;-79
2023/10/22 02:54:55;;;;;;;5.65;2.67;;;16.40;99.90;;;;;;4961313;28;20180;-79
2023/10/22 02:57:22;;;;;;;10.32;2.80;;;16.30;99.90;;;;;;4954467;28;20223;-79
2023/10/22 02:59:49;;;;;;;5.72;2.08;;;16.30;99.90;;;;;;4957067;28;20043;-80
2023/10/22 03:02:16;;;;;;;8.15;2.63;;;16.30;99.90;;;;;;4955067;28;20038;-79
2023/10/22 03:04:44;;;;;;;13.00;2.80;;;16.30;99.90;;;;;;4955883;28;20053;-79
2023/10/22 03:07:11;;;;;;;9.63;2.25;;;16.30;99.90;;;;;;4961766;28;20097;-80
2023/10/22 03:09:38;;;;;;;6.30;2.58;;;16.30;99.90;;;;;;4948672;28;22501;-79
2023/10/22 03:12:06;;;;;;;9.23;2.85;;;16.30;99.90;;;;;;4943128;28;20133;-79
2023/10/22 03:14:33;;;;;;;10.35;3.40;;;16.30;99.90;;;;;;4946778;28;20129;-79
2023/10/22 03:17:00;;;;;;;10.40;3.03;;;16.30;99.90;;;;;;4929824;28;20421;-79
2023/10/22 03:19:27;;;;;;;8.63;2.85;;;16.30;99.90;;;;;;4944884;28;20050;-77
2023/10/22 03:21:54;;;;;;;9.93;2.47;;;16.30;99.90;;;;;;4961962;28;20047;-78
2023/10/22 03:24:22;;;;;;;7.38;3.25;;;16.20;99.90;;;;;;4940155;28;20089;-77
2023/10/22 03:26:49;;;;;;;9.07;2.83;;;16.30;99.90;;;;;;4964720;28;20517;-77
2023/10/22 03:29:17;;;;;;;9.95;3.25;;;16.20;99.90;;;;;;4929332;28;20050;-77
2023/10/22 03:31:44;;;;;;;8.57;2.70;;;16.20;99.90;;;;;;4944473;28;20411;-77
2023/10/22 03:34:11;;;;;;;11.52;3.25;;;16.30;99.90;;;;;;4979099;28;20150;-76
2023/10/22 03:36:39;;;;;;;10.93;3.92;;;16.30;99.90;;;;;;4929397;28;20520;-77
2023/10/22 03:39:06;;;;;;;9.57;3.60;;;16.30;99.90;;;;;;4961347;28;20545;-77
2023/10/22 03:41:34;;;;;;;10.43;3.47;;;16.20;99.90;;;;;;4946685;28;20780;-77
2023/10/22 03:44:01;;;;;;;12.07;3.83;;;16.20;99.90;;;;;;4978846;28;20038;-77
2023/10/22 03:46:28;;;;;;;11.88;3.90;;;16.20;99.90;;;;;;4952818;28;20042;-77
2023/10/22 03:48:57;;;;;;;9.13;4.07;;;16.20;99.90;;;;;;4953605;28;20058;-77
2023/10/22 03:51:24;;;;;;;11.60;4.03;;;16.20;99.90;;;;;;4944316;28;20054;-77
2023/10/22 03:53:53;;;;;;;10.48;3.53;;;16.20;99.90;;;;;;4938667;28;20053;-78
2023/10/22 03:56:21;;;;;;;10.95;4.20;;;16.20;99.90;;;;;;4946970;28;20049;-78
2023/10/22 03:58:48;;;;;;;9.90;3.78;;;16.20;99.90;;;;;;4960394;28;20821;-77
2023/10/22 04:01:15;;;;;;;11.65;4.07;;;16.30;99.90;;;;;;4967475;28;20089;-76
2023/10/22 04:03:43;;;;;;;9.18;3.88;;;16.20;99.90;;;;;;4943554;28;20074;-76
2023/10/22 04:06:10;;;;;;;10.52;3.22;;;16.10;99.90;;;;;;4943422;28;20069;-75
2023/10/22 04:08:38;;;;;;;4.43;1.80;;;16.10;99.90;;;;;;4957864;28;20137;-74
2023/10/22 04:11:05;;;;;;;6.18;2.28;;;16.10;99.90;;;;;;4952258;28;20314;-74
2023/10/22 04:13:32;;;;;;;3.80;1.05;;;16.20;99.90;;;;;;4943645;28;20047;-74
2023/10/22 04:15:59;;;;;;;1.90;0.45;;;16.10;99.90;;;;;;4957363;28;20061;-75
2023/10/22 04:18:27;;;;;;;1.40;0.20;;;16.20;99.90;;;;;;4952147;28;20522;-74
2023/10/22 04:20:54;;;;;;;0.82;0.20;;;16.20;99.90;;;;;;4941867;28;20190;-75
2023/10/22 04:23:21;;;;;;;2.70;0.28;;;16.20;99.90;;;;;;4936665;28;20085;-76
2023/10/22 04:25:48;;;;;;;3.83;1.45;;;16.20;99.90;;;;;;4963311;28;20144;-75
2023/10/22 04:28:16;;;;;;;2.42;0.70;;;16.30;99.90;;;;;;4954788;28;20089;-76
2023/10/22 04:30:46;;;;;;;3.85;0.95;;;16.30;99.90;;;;;;4942650;28;20120;-75
2023/10/22 04:33:13;;;;;;;2.75;1.15;;;16.30;99.90;;;;;;4945058;28;20050;-76
2023/10/22 04:35:40;;;;;;;3.63;0.85;;;16.30;99.90;;;;;;4936203;28;20148;-75
2023/10/22 04:38:07;;;;;;;4.03;0.93;;;16.20;99.90;;;;;;4960473;28;20053;-75
2023/10/22 04:40:35;;;;;;;5.40;1.02;;;16.20;99.90;;;;;;4964000;28;20054;-76
2023/10/22 04:43:02;;;;;;;3.03;1.25;;;16.20;99.90;;;;;;4942346;28;20054;-74
2023/10/22 04:45:29;;;;;;;3.22;1.52;;;16.20;99.90;;;;;;4941387;28;20057;-74
2023/10/22 04:47:57;;;;;;;4.80;1.55;;;16.30;99.90;;;;;;4944396;28;20046;-75
2023/10/22 04:50:24;;;;;;;2.58;1.90;;;16.30;99.90;;;;;;4973829;28;20799;-75
2023/10/22 04:52:52;;;;;;;4.38;1.90;;;16.30;99.90;;;;;;4942187;28;20050;-74
2023/10/22 04:55:19;;;;;;;5.85;2.20;;;16.30;99.90;;;;;;4936308;28;20695;-75
2023/10/22 04:57:46;;;;;;;4.18;2.17;;;16.40;99.90;;;;;;4966811;28;20043;-75
2023/10/22 05:00:14;;;;;;;3.47;2.13;;;16.30;99.90;;;;;;4950737;28;20179;-75
2023/10/22 05:02:42;;;;;;;6.57;2.85;;;16.30;99.90;;;;;;4954615;28;20805;-75
2023/10/22 05:05:09;;;;;;;6.13;2.03;;;16.20;99.90;;;;;;4966531;28;20050;-75
2023/10/22 05:07:36;;;;;;;5.95;2.47;;;16.20;99.90;;;;;;4958058;28;20042;-75
2023/10/22 05:10:04;;;;;;;3.75;2.08;;;16.20;99.90;;;;;;4952115;28;20065;-74
2023/10/22 05:12:31;;;;;;;5.22;1.65;;;16.20;99.90;;;;;;4942137;28;20130;-75
2023/10/22 05:14:58;;;;;;;3.70;1.48;;;16.20;99.90;;;;;;4941434;28;20043;-75
2023/10/22 05:17:25;;;;;;;3.17;1.38;;;16.20;99.90;;;;;;4933320;28;20050;-75
2023/10/22 05:19:52;;;;;;;2.78;1.75;;;16.20;99.90;;;;;;4939261;28;20057;-75
2023/10/22 05:22:20;;;;;;;4.03;2.25;;;16.20;99.90;;;;;;4948904;28;20057;-75
2023/10/22 05:24:48;;;;;;;6.18;1.98;;;16.30;99.90;;;;;;4941712;28;20093;-75
2023/10/22 05:27:17;;;;;;;4.63;2.20;;;16.30;99.90;;;;;;4941948;28;20046;-75
2023/10/22 05:29:48;;;;;;;5.63;2.47;;;16.30;99.90;;;;;;4920937;28;20077;-75
2023/10/22 05:32:15;;;;;;;6.60;2.67;;;16.20;99.90;;;;;;4940566;28;20430;-76
2023/10/22 05:34:43;;;;;;;9.07;2.50;;;16.30;99.90;;;;;;4943756;28;20046;-76
2023/10/22 05:37:10;;;;;;;5.97;2.42;;;16.30;99.90;;;;;;4940937;28;20050;-76
2023/10/22 05:39:37;;;;;;;7.22;2.42;;;16.30;99.90;;;;;;4942336;28;20049;-77
2023/10/22 05:42:05;;;;;;;5.68;2.22;;;16.30;99.90;;;;;;4958292;28;20053;-76
2023/10/22 05:44:35;;;;;;;6.00;2.42;;;16.30;99.90;;;;;;4939371;28;20052;-77
2023/10/22 05:47:04;;;;;;;6.68;2.25;;;16.30;99.90;;;;;;4941089;28;20050;-76
2023/10/22 05:49:31;;;;;;;6.30;1.70;;;16.20;99.90;;;;;;4941681;28;22389;-76
2023/10/22 05:51:58;;;;;;;6.03;1.20;;;16.20;99.90;;;;;;4939922;28;20045;-76
2023/10/22 05:54:25;;;;;;;3.90;1.27;;;16.20;99.90;;;;;;4942059;28;20108;-78
2023/10/22 05:56:52;;;;;;;3.80;0.90;;;16.20;99.90;;;;;;4942366;28;20077;-76
2023/10/22 05:59:20;;;;;;;3.53;0.65;;;16.20;99.90;;;;;;4950818;28;22140;-77
2023/10/22 06:01:47;;;;;;;4.18;1.30;;;16.20;99.90;;;;;;4938705;28;20046;-77
2023/10/22 06:04:14;;;;;;;5.10;1.02;;;16.10;99.90;;;;;;4927761;28;20145;-76
2023/10/22 06:06:41;;;;;;;4.30;0.73;;;16.10;99.90;;;;;;4962984;28;20050;-76
2023/10/22 06:09:11;;;;;;;4.13;0.70;;;16.10;99.90;;;;;;4941858;28;20050;-76
2023/10/22 06:11:39;;;;;;;5.85;1.35;;;16.20;99.90;;;;;;4923894;28;22251;-76
2023/10/22 06:14:07;;;;;;;3.75;0.70;;;16.20;99.90;;;;;;4953340;28;20402;-78
2023/10/22 06:16:36;;;;;;;3.67;0.77;;;16.20;99.90;;;;;;4939275;28;20058;-76
2023/10/22 06:19:04;;;;;;;3.47;0.70;;;16.20;99.90;;;;;;4941830;28;20577;-77
2023/10/22 06:21:31;;;;;;;3.88;0.70;;;16.30;99.90;;;;;;4941477;28;20042;-77
2023/10/22 06:23:59;;;;;;;3.17;1.13;;;16.20;99.90;;;;;;4944528;28;20108;-77
2023/10/22 06:26:26;;;;;;;2.17;0.88;;;16.20;99.90;;;;;;4955855;28;20042;-77
2023/10/22 06:28:53;;;;;;;2.58;0.90;;;16.20;99.90;;;;;;4946670;28;20575;-77
2023/10/22 06:31:20;;;;;;;2.90;1.52;;;16.20;99.90;;;;;;4949099;28;20074;-77
2023/10/22 06:33:48;;;;;;;3.45;0.82;;;16.30;99.90;;;;;;4934281;28;20054;-77
2023/10/22 06:36:21;;;;;;;4.25;1.35;;;16.30;99.90;;;;;;4941011;28;20170;-76
2023/10/22 06:38:49;;;;;;;5.15;0.98;;;16.30;99.90;;;;;;4954098;28;20046;-77
2023/10/22 06:41:20;;;;;;;4.32;1.80;;;16.30;99.90;;;;;;4957053;28;20054;-77
2023/10/22 06:43:47;;;;;;;5.45;1.30;;;16.30;99.90;;;;;;4963218;28;20034;-77
2023/10/22 06:46:17;;;;;;;7.13;1.30;;;16.30;99.90;;;;;;4944249;28;20054;-77
2023/10/22 06:48:44;;;;;;;9.38;2.13;;;16.30;99.90;;;;;;4971570;28;20054;-77
2023/10/22 06:51:15;;;;;;;8.50;2.17;;;16.30;99.90;;;;;;4942568;28;20176;-77
2023/10/22 06:53:44;;;;;;;5.68;2.17;;;16.30;99.90;;;;;;4927494;28;20054;-78
2023/10/22 06:56:14;;;;;;;7.20;1.83;;;16.30;99.90;;;;;;4941523;28;20050;-77
2023/10/22 06:58:41;;;;;;;5.30;1.85;;;16.40;99.90;;;;;;4953946;28;20042;-77
2023/10/22 07:01:14;;;;;;;8.13;2.10;;;16.40;99.90;;;;;;4944809;28;20053;-77
2023/10/22 07:03:46;;;;;;;5.10;2.53;;;16.40;99.90;;;;;;4943190;28;20188;-77
2023/10/22 07:06:14;;;;;;;5.30;2.10;;;16.40;99.90;;;;;;4942416;28;20046;-77
2023/10/22 07:08:43;;;;;;;6.13;2.17;;;16.50;99.90;;;;;;4943650;28;20057;-76
2023/10/22 07:11:10;;;;;;;3.45;1.50;;;16.50;99.90;;;;;;4945575;28;20058;-78
2023/10/22 07:13:38;;;;;;;7.18;2.03;;;16.60;99.90;;;;;;4938177;28;20077;-77
2023/10/22 07:16:07;;;;;;;4.43;2.30;;;16.60;99.90;;;;;;4943280;28;20050;-77
2023/10/22 07:18:34;;;;;;;5.45;1.67;;;16.70;99.90;;;;;;4941559;28;20046;-78
2023/10/22 07:21:01;;;;;;;7.82;2.35;;;16.80;99.90;;;;;;4950117;28;20042;-77
2023/10/22 07:23:31;;;;;;;4.68;2.35;;;16.70;99.90;;;;;;4936149;28;20177;-77
2023/10/22 07:25:59;;;;;;;5.18;1.77;;;16.80;99.90;;;;;;4943760;28;20425;-77
2023/10/22 07:28:26;;;;;;;6.68;1.90;;;16.70;99.90;;;;;;4943670;28;20046;-77
2023/10/22 07:30:53;;;;;;;8.55;2.70;;;16.80;99.90;;;;;;4943818;28;20260;-77
2023/10/22 07:33:20;;;;;;;5.75;1.65;;;16.70;99.90;;;;;;4951596;28;20383;-77
2023/10/22 07:35:55;;;;;;;4.93;2.83;;;16.70;99.90;;;;;;4942750;28;20549;-77
2023/10/22 07:38:24;;;;;;;4.90;2.28;;;16.70;99.90;;;;;;4953886;28;20053;-77
2023/10/22 07:40:55;;;;;;;4.90;2.13;;;16.70;99.90;;;;;;4926093;28;20049;-77
2023/10/22 07:43:25;;;;;;;4.13;1.88;;;16.70;99.90;;;;;;4938961;28;21931;-77
2023/10/22 07:45:52;;;;;;;5.82;1.88;;;16.60;99.90;;;;;;4936058;28;20046;-77
2023/10/22 07:48:19;;;;;;;3.10;1.80;;;16.70;99.90;;;;;;4951420;28;21453;-77
2023/10/22 07:50:47;;;;;;;2.80;1.60;;;16.70;99.90;;;;;;4988824;28;22608;-77
2023/10/22 07:53:14;;;;;;;3.75;1.83;;;16.80;99.90;;;;;;4995588;28;20069;-81
2023/10/22 07:55:42;;;;;;;3.92;1.70;;;16.70;99.90;;;;;;4937090;28;20057;-77
2023/10/22 07:58:09;;;;;;;7.88;2.65;;;16.80;99.90;;;;;;4950225;28;20058;-77
2023/10/22 08:00:36;;;;;;;4.07;1.70;;;16.70;99.90;;;;;;4955091;28;20612;-78
2023/10/22 08:03:04;;;;;;;5.28;1.88;;;16.70;99.90;;;;;;4937433;28;20049;-77
2023/10/22 08:05:31;;;;;;;3.92;1.50;;;16.60;99.90;;;;;;4944369;28;20053;-77
2023/10/22 08:07:59;;;;;;;2.95;1.27;;;16.60;99.90;;;;;;4946788;28;20679;-78
2023/10/22 08:10:27;;;;;;;2.47;1.45;;;16.40;99.90;;;;;;4947929;28;21016;-77
2023/10/22 08:12:54;;;;;;;3.17;1.67;;;16.40;99.90;;;;;;4942880;28;20050;-77
2023/10/22 08:15:21;;;;;;;2.75;1.40;;;16.50;99.90;;;;;;4947151;28;20700;-78
2023/10/22 08:17:48;;;;;;;3.65;1.38;;;16.60;99.90;;;;;;4936359;28;20054;-78
2023/10/22 08:20:16;;;;;;;2.47;1.75;;;16.70;99.90;;;;;;4966739;28;20046;-77
2023/10/22 08:22:43;;;;;;;3.75;1.73;;;16.70;99.90;;;;;;4945034;28;20050;-80
2023/10/22 08:25:11;;;;;;;4.63;1.60;;;16.70;99.90;;;;;;4931031;28;22220;-78
2023/10/22 08:27:38;;;;;;;1.45;1.15;;;16.60;99.90;;;;;;4944243;28;20050;-77
2023/10/22 08:30:06;;;;;;;4.35;1.65;;;16.60;99.90;;;;;;4948472;28;20152;-78
2023/10/22 08:32:34;;;;;;;3.97;1.45;;;16.50;99.90;;;;;;4957735;28;20429;-78
2023/10/22 08:35:06;;;;;;;2.05;1.05;;;16.40;99.90;;;;;;4951126;28;20057;-79
2023/10/22 08:37:33;;;;;;;3.40;1.30;;;16.50;99.90;;;;;;4964587;28;20772;-78
2023/10/22 08:40:00;;;;;;;2.58;1.50;;;16.40;99.90;;;;;;4964858;28;20069;-78
2023/10/22 08:42:28;;;;;;;2.67;1.23;;;16.40;99.90;;;;;;4956119;28;20045;-77
2023/10/22 08:44:56;;;;;;;3.40;1.60;;;16.40;99.90;;;;;;4933896;28;20679;-79
2023/10/22 08:47:23;;;;;;;2.05;1.27;;;16.50;99.90;;;;;;4984350;28;20042;-79
2023/10/22 08:49:52;;;;;;;3.78;1.33;;;16.40;99.90;;;;;;4963466;28;20457;-78
2023/10/22 08:52:19;;;;;;;4.13;1.55;;;16.50;99.90;;;;;;4968981;28;20485;-79
2023/10/22 08:54:46;;;;;;;3.88;2.25;;;16.50;99.90;;;;;;4953736;28;20053;-78
2023/10/22 08:57:14;;;;;;;3.40;1.60;;;16.50;99.90;;;;;;4943471;28;20069;-79
2023/10/22 08:59:44;;;;;;;4.13;1.30;;;16.70;99.90;;;;;;4950983;28;20046;-78
2023/10/22 09:02:12;;;;;;;1.83;1.00;;;16.70;99.90;;;;;;4952000;28;20748;-79
2023/10/22 09:04:39;;;;;;;2.72;1.30;;;16.60;99.90;;;;;;4943926;28;20178;-78
2023/10/22 09:07:07;;;;;;;1.92;1.20;;;16.60;99.90;;;;;;4945381;28;20732;-79
2023/10/22 09:09:37;;;;;;;2.90;1.48;;;16.60;99.90;;;;;;4954133;28;20525;-79
2023/10/22 09:12:08;;;;;;;3.45;2.20;;;16.50;99.90;;;;;;4957467;28;20054;-79
2023/10/22 09:14:35;;;;;;;5.63;2.55;;;16.60;99.90;;;;;;4960032;28;20144;-78
2023/10/22 09:17:17;;;;;;;4.35;2.60;;;16.60;99.90;;;;;;4956929;28;20089;-78
2023/10/22 09:19:47;;;;;;;3.53;2.05;;;16.70;99.90;;;;;;4949204;28;20054;-79
2023/10/22 09:22:26;;;;;;;7.55;1.90;;;16.60;99.90;;;;;;4947167;28;20513;-79
2023/10/22 09:24:57;;;;;;;4.60;1.77;;;16.70;99.90;;;;;;4959625;28;20082;-79
2023/10/22 09:27:26;;;;;;;3.58;1.90;;;16.70;99.90;;;;;;4948807;28;20566;-79
2023/10/22 09:29:55;;;;;;;6.72;2.50;;;16.80;99.90;;;;;;4962798;28;20484;-79
2023/10/22 09:32:22;;;;;;;2.92;1.65;;;16.80;99.90;;;;;;4950637;28;20085;-79
2023/10/22 09:34:49;;;;;;;4.40;1.77;;;16.80;99.90;;;;;;4943935;28;20046;-79
2023/10/22 09:37:16;;;;;;;3.75;2.10;;;17.00;99.90;;;;;;4952350;28;20046;-80
2023/10/22 09:39:45;;;;;;;3.30;1.90;;;17.00;99.90;;;;;;4977575;28;20042;-79
2023/10/22 09:42:14;;;;;;;4.88;2.20;;;17.10;99.90;;;;;;4946314;28;20782;-79
2023/10/22 09:44:44;;;;;;;4.47;2.05;;;17.20;99.90;;;;;;4963378;28;20530;-79
2023/10/22 09:47:30;;;;;;;6.30;2.05;;;17.30;99.90;;;;;;4963058;28;20114;-79
2023/10/22 09:50:04;;;;;;;3.35;1.70;;;17.40;99.90;;;;;;4943201;28;20415;-80
2023/10/22 09:52:35;;;;;;;3.58;1.45;;;17.30;99.90;;;;;;4953061;28;20054;-80
2023/10/22 09:55:06;;;;;;;2.60;1.10;;;17.10;99.90;;;;;;4966775;28;20050;-79
2023/10/22 09:57:34;;;;;;;1.33;0.82;;;17.00;99.90;;;;;;4969818;28;20142;-79
2023/10/22 10:00:08;;;;;;;1.92;0.90;;;17.00;99.90;;;;;;4966758;28;20049;-78
2023/10/22 10:02:37;;;;;;;4.07;1.10;;;17.10;99.90;;;;;;4954496;28;20137;-79
2023/10/22 10:05:06;;;;;;;2.17;0.98;;;17.10;99.90;;;;;;4957226;28;20039;-79
2023/10/22 10:07:39;;;;;;;1.25;0.63;;;17.10;99.90;;;;;;4956582;28;22196;-78
2023/10/22 10:10:09;;;;;;;4.38;1.35;;;17.10;99.90;;;;;;4967561;28;20144;-79
2023/10/22 10:12:40;;;;;;;3.17;0.60;;;17.00;99.90;;;;;;4933039;28;20057;-78
2023/10/22 10:15:07;;;;;;;0.93;0.30;;;17.20;99.90;;;;;;4945184;28;20164;-78
2023/10/22 10:17:54;;;;;;;1.15;0.32;;;17.10;99.90;;;;;;4960618;28;20046;-78
2023/10/22 10:20:30;;;;;;;0.90;0.40;;;17.20;99.90;;;;;;4953385;28;20721;-79
2023/10/22 10:23:21;;;;;;;0.50;0.30;;;17.10;99.90;;;;;;4941254;28;20094;-78
2023/10/22 10:25:48;;;;;;;1.30;0.30;;;17.00;99.90;;;;;;4952205;28;20149;-79
2023/10/22 10:28:16;;;;;;;1.95;1.17;;;16.90;99.90;;;;;;4952222;28;20054;-81
2023/10/22 10:30:44;;;;;;;1.30;0.50;;;16.80;99.90;;;;;;4958639;28;20509;-79
2023/10/22 10:33:14;;;;;;;4.70;0.80;;;16.70;99.90;;;;;;4946192;28;20424;-80
2023/10/22 10:35:45;;;;;;;1.27;0.68;;;16.70;99.90;;;;;;4955044;28;20521;-79
2023/10/22 10:38:15;;;;;;;1.55;0.30;;;16.70;99.90;;;;;;4943970;28;20077;-79
2023/10/22 10:40:46;;;;;;;2.58;0.52;;;16.60;99.90;;;;;;4967415;28;20050;-80
2023/10/22 10:43:13;;;;;;;1.83;0.30;;;16.80;99.90;;;;;;4944012;28;20055;-79
2023/10/22 10:46:19;;;;;;;10.30;6.00;;;16.80;99.90;;;;;;4942263;28;20054;-80
2023/10/22 10:48:49;;;;;;;38.25;19.98;;;16.80;99.90;;;;;;4948083;28;20461;-78
2023/10/22 10:51:22;;;;;;;100.05;46.22;;;16.60;99.90;;;;;;4956437;28;20537;-81
2023/10/22 10:54:08;;;;;;;41.25;24.42;;;16.40;99.90;;;;;;4947188;28;20263;-80
2023/10/22 10:56:47;;;;;;;3.35;2.50;;;16.50;99.90;;;;;;4941052;28;20081;-79
2023/10/22 10:59:31;;;;;;;3.60;0.82;;;16.50;99.90;;;;;;4945989;28;20054;-78
2023/10/22 11:02:01;;;;;;;5.53;3.88;;;16.50;99.90;;;;;;4954949;28;20193;-80
2023/10/22 11:04:30;;;;;;;2.97;2.20;;;16.60;99.90;;;;;;4969867;28;20038;-80
2023/10/22 11:06:58;;;;;;;3.25;2.35;;;16.70;99.90;;;;;;4962113;28;20276;-80
2023/10/22 11:09:46;;;;;;;10.48;4.82;;;16.70;99.90;;;;;;4962370;28;20050;-79
2023/10/22 11:12:13;;;;;;;1.00;0.30;;;16.70;99.90;;;;;;4944411;28;20049;-80
2023/10/22 11:14:40;;;;;;;1.00;0.20;;;16.70;99.90;;;;;;4979568;28;20120;-79
2023/10/22 11:17:08;;;;;;;1.00;0.50;;;16.70;99.90;;;;;;4944753;28;22154;-81
2023/10/22 11:19:35;;;;;;;0.30;0.10;;;16.70;99.90;;;;;;4962573;28;20054;-80
2023/10/22 11:22:03;;;;;;;2.05;0.32;;;16.60;99.90;;;;;;4935566;28;20050;-80
2023/10/22 11:24:33;;;;;;;0.70;0.20;;;16.70;99.90;;;;;;4952930;28;20048;-80
2023/10/22 11:27:03;;;;;;;1.95;0.40;;;16.60;99.90;;;;;;4954063;28;20319;-80
2023/10/22 11:29:42;;;;;;;0.90;0.22;;;16.60;99.90;;;;;;4951985;28;20042;-80
2023/10/22 11:32:13;;;;;;;1.02;0.22;;;16.50;99.90;;;;;;4975065;28;20050;-81
2023/10/22 11:35:07;;;;;;;1.45;0.30;;;16.50;99.90;;;;;;4957685;28;20050;-79
2023/10/22 11:37:41;;;;;;;1.30;0.30;;;16.50;99.90;;;;;;4949152;28;20082;-81
2023/10/22 11:40:29;;;;;;;1.15;0.28;;;16.50;99.90;;;;;;4974574;28;20038;-79
2023/10/22 11:43:00;;;;;;;2.17;0.60;;;16.50;99.90;;;;;;4959721;28;20188;-81
2023/10/22 11:45:36;;;;;;;3.33;1.48;;;16.60;99.90;;;;;;4955676;28;20054;-80
2023/10/22 11:48:13;;;;;;;5.75;2.35;;;16.70;99.90;;;;;;4968863;28;20058;-80
2023/10/22 11:51:01;;;;;;;5.60;1.92;;;16.70;99.90;;;;;;4971427;28;20055;-80
2023/10/22 11:53:42;;;;;;;7.25;2.30;;;16.80;99.90;;;;;;4968896;28;20050;-80
2023/10/22 11:56:10;;;;;;;2.65;0.90;;;16.70;99.90;;;;;;4974753;28;20169;-81
2023/10/22 11:58:37;;;;;;;2.97;1.45;;;16.60;99.90;;;;;;4969677;28;20102;-80
2023/10/22 12:01:04;;;;;;;1.15;0.60;;;16.60;99.90;;;;;;4963821;28;20093;-80
2023/10/22 12:03:31;;;;;;;9.63;5.97;;;16.70;99.90;;;;;;4956636;28;20199;-80
2023/10/22 12:05:59;;;;;;;6.65;4.63;;;16.60;99.90;;;;;;4958690;28;20611;-80
2023/10/22 12:08:27;;;;;;;0.90;0.20;;;16.80;99.90;;;;;;4975239;28;20539;-80
2023/10/22 12:10:54;;;;;;;0.70;0.50;;;16.90;99.90;;;;;;4964465;28;20157;-81
2023/10/22 12:13:21;;;;;;;1.55;0.55;;;16.90;99.90;;;;;;4958550;28;20050;-80
2023/10/22 12:15:49;;;;;;;1.50;0.20;;;17.00;99.90;;;;;;4953558;28;20057;-79
2023/10/22 12:18:17;;;;;;;0.52;0.20;;;17.10;99.90;;;;;;4954344;28;20046;-81
2023/10/22 12:20:44;;;;;;;9.00;4.40;;;17.00;99.90;;;;;;4961237;28;20058;-80
2023/10/22 12:23:11;;;;;;;2.88;1.50;;;16.90;99.90;;;;;;4955768;28;20047;-80
2023/10/22 12:25:38;;;;;;;0.52;0.15;;;16.90;99.90;;;;;;4946220;28;20588;-80
2023/10/22 12:28:06;;;;;;;1.02;0.43;;;17.00;99.90;;;;;;4962487;28;20050;-80
2023/10/22 12:30:34;;;;;;;1.08;0.20;;;16.90;99.90;;;;;;4965182;28;20050;-81
2023/10/22 12:33:02;;;;;;;0.43;0.10;;;16.90;99.90;;;;;;4963975;28;20061;-80
2023/10/22 12:35:29;;;;;;;0.40;0.10;;;16.90;99.90;;;;;;4972640;28;20138;-78
2023/10/22 12:37:57;;;;;;;1.08;0.10;;;16.90;99.90;;;;;;4963545;28;20119;-80
2023/10/22 12:40:24;;;;;;;2.22;0.95;;;16.90;99.90;;;;;;4956447;28;20105;-79
2023/10/22 12:42:51;;;;;;;0.38;0.10;;;16.90;99.90;;;;;;4958395;28;20070;-80
2023/10/22 12:45:18;;;;;;;0.80;0.10;;;16.90;99.90;;;;;;4947154;28;20125;-80
2023/10/22 12:47:45;;;;;;;0.60;0.10;;;16.90;99.90;;;;;;4955176;28;20678;-80
2023/10/22 12:50:13;;;;;;;0.45;0.20;;;17.00;99.90;;;;;;4959990;28;20074;-79
2023/10/22 12:52:40;;;;;;;0.68;0.30;;;17.00;99.90;;;;;;4967903;28;20057;-79